Time;durP1;ratioP1;P1;durP2;ratioP2;P2;SDS_P1;SDS_P2;PMS_P1;PMS_P2;Temp;Humidity;BMP_temperature;BMP_pressure;BME280_temperature;BME280_humidity;BME280_pressure;Samples;Min_cycle;Max_cycle;Signal;HPM_P1;HPM_P2
2022/08/06 00:02:09;;;;;;;6.73;1.73;;;19.20;99.90;;;;;;4914245;29;20237;-73
2022/08/06 00:04:35;;;;;;;3.17;1.77;;;19.20;99.90;;;;;;4914743;29;20253;-74
2022/08/06 00:07:00;;;;;;;2.77;1.70;;;19.20;99.90;;;;;;4914548;29;20178;-72
2022/08/06 00:09:30;;;;;;;2.17;2.07;;;19.20;99.90;;;;;;4914907;29;20213;-72
2022/08/06 00:11:57;;;;;;;2.70;1.83;;;19.20;99.90;;;;;;4916672;29;20221;-74
2022/08/06 00:14:23;;;;;;;1.77;1.50;;;19.30;99.90;;;;;;4919209;29;20445;-72
2022/08/06 00:16:48;;;;;;;1.67;1.40;;;19.20;99.90;;;;;;4917316;29;20470;-73
2022/08/06 00:19:14;;;;;;;1.40;1.30;;;19.20;99.90;;;;;;4918102;29;20190;-73
2022/08/06 00:21:41;;;;;;;2.77;1.47;;;19.20;99.90;;;;;;4915658;29;20198;-72
2022/08/06 00:24:07;;;;;;;1.43;1.33;;;19.20;99.90;;;;;;4914963;29;20198;-72
2022/08/06 00:26:32;;;;;;;6.00;1.53;;;19.30;99.90;;;;;;4915342;29;20481;-72
2022/08/06 00:28:58;;;;;;;1.70;1.60;;;19.30;99.90;;;;;;4914067;29;20497;-71
2022/08/06 00:31:23;;;;;;;1.50;1.40;;;19.20;99.90;;;;;;4912736;29;20743;-72
2022/08/06 00:33:49;;;;;;;2.17;1.60;;;19.20;99.90;;;;;;4911184;29;20262;-72
2022/08/06 00:36:15;;;;;;;2.90;1.30;;;19.30;99.90;;;;;;4914673;29;20636;-72
2022/08/06 00:38:40;;;;;;;2.87;1.50;;;19.20;99.90;;;;;;4914761;29;20177;-72
2022/08/06 00:41:06;;;;;;;1.87;1.53;;;19.30;99.90;;;;;;4913901;29;20581;-73
2022/08/06 00:43:31;;;;;;;1.77;1.30;;;19.30;99.90;;;;;;4914731;29;20182;-72
2022/08/06 00:45:57;;;;;;;1.57;1.20;;;19.30;99.90;;;;;;4914495;29;20249;-72
2022/08/06 00:48:22;;;;;;;2.13;1.20;;;19.30;99.90;;;;;;4914715;29;20216;-72
2022/08/06 00:50:48;;;;;;;2.00;1.60;;;19.20;99.90;;;;;;4913416;29;20186;-71
2022/08/06 00:53:13;;;;;;;1.40;1.30;;;19.20;99.90;;;;;;4914716;29;20241;-72
2022/08/06 00:55:39;;;;;;;1.97;1.60;;;19.20;99.90;;;;;;4912714;29;20277;-72
2022/08/06 00:58:06;;;;;;;5.13;1.53;;;19.20;99.90;;;;;;4915150;29;20174;-72
2022/08/06 02:31:09;;;;;;;1.53;1.43;;;18.60;99.90;;;;;;5859508;23;21418;-70
2022/08/06 02:33:35;;;;;;;2.90;1.20;;;18.50;99.90;;;;;;4924675;29;20958;-73
2022/08/06 02:36:17;;;;;;;1.30;1.20;;;18.50;99.90;;;;;;4911756;29;20422;-72
2022/08/06 02:38:49;;;;;;;4.10;1.60;;;18.40;99.90;;;;;;4898211;29;20413;-73
2022/08/06 02:41:34;;;;;;;1.47;1.37;;;18.40;99.90;;;;;;4896852;29;20437;-72
2022/08/06 02:44:09;;;;;;;1.33;1.20;;;18.30;99.90;;;;;;4898170;29;20415;-72
2022/08/06 02:46:43;;;;;;;1.77;1.50;;;18.30;99.90;;;;;;4898214;29;20419;-73
2022/08/06 02:49:36;;;;;;;2.93;1.43;;;18.30;99.90;;;;;;4897328;29;20459;-70
2022/08/06 02:52:15;;;;;;;1.53;1.00;;;18.20;99.90;;;;;;4895582;29;21019;-73
2022/08/06 02:54:48;;;;;;;5.63;1.80;;;18.20;99.90;;;;;;4898068;29;20445;-73
2022/08/06 02:57:21;;;;;;;2.03;1.30;;;18.20;99.90;;;;;;4897702;29;20403;-72
2022/08/06 02:59:52;;;;;;;1.50;1.40;;;18.20;99.90;;;;;;4897647;29;20438;-70
2022/08/06 03:02:22;;;;;;;2.07;1.80;;;18.30;99.90;;;;;;4896367;29;20450;-72
2022/08/06 03:04:50;;;;;;;1.67;1.57;;;18.30;99.90;;;;;;4897917;29;20418;-71
2022/08/06 03:07:18;;;;;;;1.70;1.60;;;18.30;99.90;;;;;;4897090;29;20423;-72
2022/08/06 03:09:47;;;;;;;1.63;1.53;;;18.30;99.90;;;;;;4897776;29;20465;-72
2022/08/06 03:12:15;;;;;;;2.40;1.87;;;18.30;99.90;;;;;;4896861;29;20522;-73
2022/08/06 03:14:42;;;;;;;1.50;1.40;;;18.40;99.90;;;;;;4897680;29;20419;-73
2022/08/06 03:17:10;;;;;;;1.30;1.20;;;18.30;99.90;;;;;;4897508;29;20450;-71
2022/08/06 03:19:37;;;;;;;2.97;1.60;;;18.40;99.90;;;;;;4897061;29;20458;-73
2022/08/06 03:22:05;;;;;;;2.47;1.70;;;18.30;99.90;;;;;;4898436;29;20458;-73
2022/08/06 03:24:32;;;;;;;2.17;1.97;;;18.40;99.90;;;;;;4900418;29;20474;-74
2022/08/06 03:26:59;;;;;;;5.87;2.03;;;18.40;99.90;;;;;;4900221;29;20502;-73
2022/08/06 03:29:26;;;;;;;1.73;1.63;;;18.40;99.90;;;;;;4898799;29;20807;-73
2022/08/06 03:31:52;;;;;;;1.57;1.47;;;18.30;99.90;;;;;;4897464;29;20454;-73
2022/08/06 03:34:19;;;;;;;2.23;1.73;;;18.30;99.90;;;;;;4897433;29;20419;-73
2022/08/06 03:36:45;;;;;;;4.23;1.93;;;18.30;99.90;;;;;;4897461;29;20422;-73
2022/08/06 03:39:12;;;;;;;2.70;1.50;;;18.30;99.90;;;;;;4896186;29;20415;-71
2022/08/06 03:41:39;;;;;;;2.13;1.70;;;18.30;99.90;;;;;;4895805;29;20435;-73
2022/08/06 03:44:05;;;;;;;2.50;1.40;;;18.30;99.90;;;;;;4896850;29;20521;-72
2022/08/06 03:46:52;;;;;;;2.17;1.53;;;18.30;99.90;;;;;;4897506;29;20506;-72
2022/08/06 03:49:42;;;;;;;2.10;1.83;;;18.20;99.90;;;;;;4897001;29;20248;-73
2022/08/06 03:52:13;;;;;;;9.20;2.53;;;18.30;99.90;;;;;;4896340;29;20441;-71
2022/08/06 03:54:45;;;;;;;4.07;2.73;;;18.30;99.90;;;;;;4897118;29;20411;-73
2022/08/06 03:57:19;;;;;;;4.10;2.17;;;18.30;99.90;;;;;;4896234;29;20830;-73
2022/08/06 03:59:48;;;;;;;5.03;1.67;;;18.30;99.90;;;;;;4896861;29;20417;-73
2022/08/06 04:02:15;;;;;;;2.70;1.77;;;18.20;99.90;;;;;;4895027;29;20435;-72
2022/08/06 04:04:42;;;;;;;1.90;1.40;;;18.20;99.90;;;;;;4896908;29;20438;-73
2022/08/06 04:07:09;;;;;;;1.40;1.30;;;18.30;99.90;;;;;;4896384;29;20430;-72
2022/08/06 04:09:35;;;;;;;3.43;1.40;;;18.20;99.90;;;;;;4896007;29;20848;-72
2022/08/06 04:12:02;;;;;;;3.90;2.00;;;18.30;99.90;;;;;;4895632;29;20435;-73
2022/08/06 04:14:28;;;;;;;1.63;1.33;;;18.20;99.90;;;;;;4896210;29;20411;-71
2022/08/06 04:16:54;;;;;;;1.83;1.50;;;18.20;99.90;;;;;;4896476;29;20411;-73
2022/08/06 04:19:20;;;;;;;3.67;1.70;;;18.30;99.90;;;;;;4895951;29;20797;-73
2022/08/06 04:21:46;;;;;;;1.50;1.40;;;18.30;99.90;;;;;;4895615;29;20784;-72
2022/08/06 04:24:13;;;;;;;2.07;1.97;;;18.30;99.90;;;;;;4895624;29;20412;-73
2022/08/06 04:26:41;;;;;;;2.70;1.70;;;18.30;99.90;;;;;;4896196;29;20486;-73
2022/08/06 04:29:11;;;;;;;3.03;1.70;;;18.30;99.90;;;;;;4895630;29;20560;-70
2022/08/06 04:31:38;;;;;;;3.13;1.80;;;18.30;99.90;;;;;;4895653;29;20818;-73
2022/08/06 04:34:05;;;;;;;1.83;1.30;;;18.30;99.90;;;;;;4896108;29;20414;-73
2022/08/06 04:36:32;;;;;;;2.30;1.37;;;18.30;99.90;;;;;;4895785;29;20423;-73
2022/08/06 04:38:57;;;;;;;1.70;1.60;;;18.30;99.90;;;;;;4895519;29;20479;-73
2022/08/06 04:41:24;;;;;;;3.60;1.87;;;18.30;99.90;;;;;;4895074;29;20935;-73
2022/08/06 04:43:51;;;;;;;1.57;1.40;;;18.30;99.90;;;;;;4896167;29;20555;-72
2022/08/06 04:46:17;;;;;;;4.10;1.90;;;18.30;99.90;;;;;;4895315;29;20439;-73
2022/08/06 04:48:43;;;;;;;4.70;2.00;;;18.30;99.90;;;;;;4895896;29;20864;-73
2022/08/06 04:51:08;;;;;;;3.83;1.90;;;18.30;99.90;;;;;;4894447;29;20447;-71
2022/08/06 04:53:39;;;;;;;3.03;1.80;;;18.30;99.90;;;;;;4894196;29;20174;-73
2022/08/06 04:56:06;;;;;;;2.90;2.60;;;18.30;99.90;;;;;;4895876;29;20167;-73
2022/08/06 04:58:32;;;;;;;1.90;1.70;;;18.30;99.90;;;;;;4894423;29;20955;-72
2022/08/06 05:00:58;;;;;;;1.70;1.60;;;18.30;99.90;;;;;;4894585;29;20478;-73
2022/08/06 05:03:23;;;;;;;2.00;1.90;;;18.30;99.90;;;;;;4895575;29;20509;-73
2022/08/06 05:05:59;;;;;;;2.80;1.70;;;18.30;99.90;;;;;;4895843;29;20187;-73
2022/08/06 05:08:28;;;;;;;3.00;1.30;;;18.30;99.90;;;;;;4895699;29;20209;-73
2022/08/06 05:11:01;;;;;;;3.20;2.60;;;18.30;99.90;;;;;;4895072;29;20791;-73
2022/08/06 05:13:32;;;;;;;1.93;1.73;;;18.30;99.90;;;;;;4894969;29;20423;-71
2022/08/06 05:16:03;;;;;;;1.80;1.70;;;18.30;99.90;;;;;;4895980;29;20423;-72
2022/08/06 05:18:35;;;;;;;4.10;2.20;;;18.40;99.90;;;;;;4895657;29;20423;-71
2022/08/06 05:21:03;;;;;;;2.80;1.73;;;18.40;99.90;;;;;;4894712;29;20447;-72
2022/08/06 05:23:34;;;;;;;2.97;1.80;;;18.40;99.90;;;;;;4895662;29;20824;-71
2022/08/06 05:26:01;;;;;;;1.47;1.37;;;18.50;99.90;;;;;;4894868;29;20798;-72
2022/08/06 05:28:26;;;;;;;2.23;2.00;;;18.50;99.90;;;;;;4896104;29;20876;-72
2022/08/06 05:30:52;;;;;;;1.70;1.60;;;18.70;99.90;;;;;;4894772;29;20449;-72
2022/08/06 05:33:25;;;;;;;3.63;1.53;;;18.90;99.90;;;;;;4894605;29;20711;-72
2022/08/06 05:35:51;;;;;;;2.07;1.80;;;19.30;99.90;;;;;;4895424;29;20203;-72
2022/08/06 05:38:16;;;;;;;6.73;2.03;;;19.50;99.90;;;;;;4895353;29;20415;-71
2022/08/06 05:40:42;;;;;;;2.13;1.80;;;19.70;99.90;;;;;;4894813;29;20174;-72
2022/08/06 05:43:07;;;;;;;2.33;1.70;;;19.70;99.90;;;;;;4894780;29;20179;-71
2022/08/06 05:45:34;;;;;;;2.27;2.00;;;19.80;99.90;;;;;;4895532;29;20186;-73
2022/08/06 05:48:03;;;;;;;1.63;1.53;;;20.10;99.90;;;;;;4895353;29;20185;-72
2022/08/06 05:50:34;;;;;;;1.50;1.40;;;20.40;99.90;;;;;;4894940;29;20466;-71
2022/08/06 05:53:06;;;;;;;2.60;1.50;;;20.50;99.90;;;;;;4894929;29;20400;-73
2022/08/06 05:55:39;;;;;;;3.83;1.63;;;20.60;99.90;;;;;;4894098;29;20423;-72
2022/08/06 05:58:11;;;;;;;5.80;1.60;;;20.70;99.90;;;;;;4895434;29;20407;-73
2022/08/06 06:00:38;;;;;;;6.83;1.60;;;20.60;99.90;;;;;;4894372;29;20399;-73
2022/08/06 06:03:07;;;;;;;3.83;1.63;;;20.60;99.90;;;;;;4896257;29;20435;-72
2022/08/06 06:05:34;;;;;;;1.70;1.60;;;20.60;99.90;;;;;;4899064;29;20449;-73
2022/08/06 06:08:00;;;;;;;2.87;1.87;;;20.40;99.90;;;;;;4899093;29;20908;-73
2022/08/06 06:10:27;;;;;;;1.50;1.40;;;20.50;99.90;;;;;;4897711;29;20481;-72
2022/08/06 06:12:54;;;;;;;3.07;2.67;;;20.50;99.90;;;;;;4898528;29;20203;-72
2022/08/06 06:15:19;;;;;;;3.07;1.80;;;20.60;99.90;;;;;;4898743;29;20423;-73
2022/08/06 06:18:17;;;;;;;2.13;1.53;;;20.70;99.90;;;;;;4899071;29;20423;-73
2022/08/06 06:20:57;;;;;;;2.23;1.83;;;21.00;99.90;;;;;;4898397;29;20182;-73
2022/08/06 06:23:30;;;;;;;1.57;1.47;;;21.30;99.90;;;;;;4897765;29;20448;-73
2022/08/06 06:26:23;;;;;;;1.80;1.70;;;21.60;99.90;;;;;;4898559;29;20422;-74
2022/08/06 06:29:03;;;;;;;3.37;2.20;;;22.00;99.90;;;;;;4898293;29;20693;-73
2022/08/06 06:32:06;;;;;;;4.20;1.63;;;22.00;99.90;;;;;;4896946;29;20454;-73
2022/08/06 06:34:47;;;;;;;1.50;1.43;;;22.20;99.90;;;;;;4898337;29;20422;-73
2022/08/06 06:37:18;;;;;;;1.90;1.40;;;22.30;99.90;;;;;;4898172;29;20419;-72
2022/08/06 06:40:08;;;;;;;1.80;1.37;;;22.40;99.90;;;;;;4898116;29;20423;-73
2022/08/06 06:42:51;;;;;;;3.03;1.40;;;22.70;99.90;;;;;;4897284;29;20439;-72
2022/08/06 06:45:24;;;;;;;1.87;1.77;;;22.50;99.90;;;;;;4897914;29;20803;-73
2022/08/06 06:48:01;;;;;;;6.17;1.50;;;22.70;99.90;;;;;;4898372;29;20419;-73
2022/08/06 06:50:32;;;;;;;7.40;4.17;;;22.70;99.90;;;;;;4896928;29;20477;-71
2022/08/06 06:52:57;;;;;;;2.60;1.53;;;22.70;99.90;;;;;;4897796;29;20907;-73
2022/08/06 06:55:35;;;;;;;6.67;1.70;;;22.80;99.90;;;;;;4897810;29;20451;-73
2022/08/06 06:58:16;;;;;;;2.80;2.17;;;23.00;99.90;;;;;;4898062;29;20200;-73
2022/08/06 07:00:43;;;;;;;2.80;1.60;;;22.80;99.90;;;;;;4897176;29;20431;-73
2022/08/06 07:03:10;;;;;;;3.90;1.60;;;22.80;99.90;;;;;;4897617;29;20427;-73
2022/08/06 07:05:39;;;;;;;4.40;1.80;;;22.80;99.90;;;;;;4897471;29;20421;-74
2022/08/06 07:08:05;;;;;;;4.33;2.43;;;22.60;99.90;;;;;;4897586;29;20431;-73
2022/08/06 07:10:32;;;;;;;2.20;1.60;;;22.50;99.90;;;;;;4896953;29;20438;-74
2022/08/06 07:12:59;;;;;;;3.93;2.20;;;22.30;99.90;;;;;;4897570;29;20435;-73
2022/08/06 07:15:25;;;;;;;2.47;2.37;;;22.30;99.90;;;;;;4897360;29;20403;-74
2022/08/06 07:17:52;;;;;;;5.40;2.40;;;22.30;99.90;;;;;;4897051;29;20407;-73
2022/08/06 07:20:25;;;;;;;3.50;1.77;;;22.30;99.90;;;;;;4897001;29;20418;-74
2022/08/06 07:22:52;;;;;;;6.47;2.03;;;22.70;99.90;;;;;;4897165;29;20534;-73
2022/08/06 07:25:18;;;;;;;2.73;1.73;;;23.00;99.90;;;;;;4897387;29;20422;-74
2022/08/06 07:27:48;;;;;;;2.00;1.90;;;23.00;99.90;;;;;;4896926;29;20965;-74
2022/08/06 07:30:15;;;;;;;3.97;1.83;;;23.20;99.90;;;;;;4896963;29;20506;-73
2022/08/06 07:32:43;;;;;;;3.53;1.90;;;23.30;99.90;;;;;;4897001;29;20533;-74
2022/08/06 07:35:10;;;;;;;2.20;1.97;;;23.20;99.90;;;;;;4899116;29;20513;-72
2022/08/06 07:37:39;;;;;;;1.93;1.50;;;23.40;99.90;;;;;;4898608;29;20426;-74
2022/08/06 07:40:08;;;;;;;1.53;1.43;;;23.40;99.90;;;;;;4897936;29;20423;-74
2022/08/06 07:42:37;;;;;;;1.30;1.30;;;23.60;99.90;;;;;;4896089;29;20522;-73
2022/08/06 07:45:06;;;;;;;2.23;1.80;;;23.60;99.90;;;;;;4897318;29;20419;-73
2022/08/06 07:47:39;;;;;;;6.33;2.30;;;23.60;99.90;;;;;;4896997;29;20407;-73
2022/08/06 07:50:06;;;;;;;4.70;2.07;;;23.60;99.90;;;;;;4895816;29;20490;-73
2022/08/06 07:52:32;;;;;;;2.80;1.63;;;23.70;99.90;;;;;;4896049;29;20450;-73
2022/08/06 07:54:59;;;;;;;2.80;1.43;;;24.10;99.90;;;;;;4896995;29;20443;-74
2022/08/06 07:57:25;;;;;;;2.33;1.80;;;24.40;99.90;;;;;;4896838;29;20467;-74
2022/08/06 07:59:52;;;;;;;1.40;1.30;;;24.50;99.90;;;;;;4896304;29;20513;-73
2022/08/06 08:02:18;;;;;;;4.23;1.90;;;24.40;99.90;;;;;;4895891;29;20447;-73
2022/08/06 08:07:31;;;;;;;2.50;1.40;;;24.40;99.90;;;;;;4896195;29;20719;-71
2022/08/06 08:09:59;;;;;;;1.90;1.60;;;24.30;99.90;;;;;;4896774;29;20494;-73
2022/08/06 08:12:26;;;;;;;2.30;1.10;;;24.30;99.90;;;;;;4895896;29;20435;-73
2022/08/06 08:14:52;;;;;;;1.43;1.33;;;24.30;99.90;;;;;;4895554;29;20423;-74
2022/08/06 08:17:17;;;;;;;1.50;1.40;;;24.00;99.90;;;;;;4896032;29;20480;-73
2022/08/06 08:19:43;;;;;;;3.10;1.60;;;23.90;99.90;;;;;;4896548;29;20677;-73
2022/08/06 08:22:15;;;;;;;7.47;2.43;;;23.80;99.90;;;;;;4895691;29;20297;-74
2022/08/06 08:24:43;;;;;;;1.67;1.57;;;23.50;99.90;;;;;;4896667;29;20656;-73
2022/08/06 08:27:10;;;;;;;3.93;2.70;;;23.20;99.90;;;;;;4895627;29;20446;-73
2022/08/06 08:29:37;;;;;;;2.47;1.70;;;23.00;99.90;;;;;;4895744;29;20458;-74
2022/08/06 08:32:03;;;;;;;6.20;1.80;;;23.00;99.90;;;;;;4895577;29;20514;-74
2022/08/06 08:34:29;;;;;;;2.97;1.50;;;22.90;99.90;;;;;;4896133;29;20434;-72
2022/08/06 08:36:55;;;;;;;1.63;1.53;;;23.00;99.90;;;;;;4896442;29;20411;-73
2022/08/06 08:39:20;;;;;;;3.10;1.53;;;22.50;99.90;;;;;;4895693;29;20186;-73
2022/08/06 08:41:50;;;;;;;2.57;1.37;;;22.40;99.90;;;;;;4895824;29;20203;-73
2022/08/06 08:44:24;;;;;;;3.23;1.47;;;22.50;99.90;;;;;;4895924;29;20591;-74
2022/08/06 08:46:50;;;;;;;1.53;1.43;;;22.40;99.90;;;;;;4896129;29;20423;-72
2022/08/06 08:49:22;;;;;;;3.03;1.60;;;22.20;99.90;;;;;;4895645;29;20465;-73
2022/08/06 08:51:50;;;;;;;2.63;1.97;;;22.30;99.90;;;;;;4894881;29;20450;-71
2022/08/06 08:54:20;;;;;;;1.97;1.77;;;22.20;99.90;;;;;;4895847;29;20415;-73
2022/08/06 08:56:47;;;;;;;2.10;1.63;;;22.00;99.90;;;;;;4895995;29;20418;-73
2022/08/06 08:59:14;;;;;;;3.23;1.67;;;22.10;99.90;;;;;;4895738;29;20522;-74
2022/08/06 09:01:40;;;;;;;1.80;1.70;;;22.20;99.90;;;;;;4895274;29;20431;-74
2022/08/06 09:04:07;;;;;;;1.93;1.80;;;22.20;99.90;;;;;;4895098;29;20980;-73
2022/08/06 09:06:33;;;;;;;3.13;1.80;;;22.20;99.90;;;;;;4895690;29;20423;-74
2022/08/06 09:09:03;;;;;;;2.70;1.30;;;22.40;99.90;;;;;;4895972;29;20592;-72
2022/08/06 09:11:34;;;;;;;1.73;1.63;;;22.50;99.90;;;;;;4894435;29;20238;-72
2022/08/06 09:14:04;;;;;;;4.73;1.70;;;22.50;99.90;;;;;;4895809;29;20419;-74
2022/08/06 09:16:32;;;;;;;1.77;1.67;;;22.60;99.90;;;;;;4895698;29;20415;-72
2022/08/06 09:18:59;;;;;;;2.20;1.97;;;23.40;99.90;;;;;;4895747;29;20426;-73
2022/08/06 09:21:26;;;;;;;6.20;1.90;;;23.40;99.90;;;;;;4894655;29;20471;-73
2022/08/06 09:23:51;;;;;;;2.30;1.53;;;23.20;99.90;;;;;;4895155;29;20506;-73
2022/08/06 09:26:17;;;;;;;2.40;1.60;;;23.00;99.90;;;;;;4895532;29;20522;-73
2022/08/06 09:28:44;;;;;;;6.17;1.50;;;22.80;99.90;;;;;;4895700;29;20202;-73
2022/08/06 09:31:12;;;;;;;3.00;1.70;;;22.70;99.90;;;;;;4894092;29;20277;-71
2022/08/06 09:33:39;;;;;;;12.10;2.07;;;22.50;99.90;;;;;;4895091;29;20414;-73
2022/08/06 09:36:08;;;;;;;3.23;1.67;;;22.20;99.90;;;;;;4895760;29;20514;-73
2022/08/06 09:38:45;;;;;;;1.67;1.57;;;22.20;99.90;;;;;;4897572;29;20486;-73
2022/08/06 09:41:12;;;;;;;2.80;2.10;;;22.20;99.90;;;;;;4897749;29;20537;-71
2022/08/06 09:43:38;;;;;;;3.43;1.80;;;22.20;99.90;;;;;;4899373;29;20429;-73
2022/08/06 09:46:05;;;;;;;1.73;1.63;;;22.30;99.90;;;;;;4899118;29;20425;-74
2022/08/06 09:48:31;;;;;;;2.07;1.87;;;22.40;99.90;;;;;;4899012;29;20500;-73
2022/08/06 09:50:56;;;;;;;1.80;1.70;;;22.20;99.90;;;;;;4898273;29;20451;-74
2022/08/06 09:53:22;;;;;;;1.63;1.43;;;22.10;99.90;;;;;;4898589;29;20207;-74
2022/08/06 09:55:50;;;;;;;1.77;1.67;;;22.20;99.90;;;;;;4898915;29;20177;-71
2022/08/06 09:58:27;;;;;;;2.93;1.67;;;22.20;99.90;;;;;;4898910;29;20422;-73
2022/08/06 10:00:53;;;;;;;3.10;1.70;;;22.20;99.90;;;;;;4898071;29;20411;-73
2022/08/06 10:03:19;;;;;;;2.50;1.50;;;22.20;99.90;;;;;;4897903;29;20411;-74
2022/08/06 10:05:44;;;;;;;2.30;1.77;;;22.30;99.90;;;;;;4897673;29;20655;-73
2022/08/06 10:08:18;;;;;;;2.73;1.90;;;22.30;99.90;;;;;;4898377;29;20186;-72
2022/08/06 10:10:51;;;;;;;4.33;1.53;;;22.90;99.90;;;;;;4899118;29;20183;-75
2022/08/06 10:13:26;;;;;;;1.90;1.80;;;23.50;99.90;;;;;;4900037;29;20415;-74
2022/08/06 10:15:54;;;;;;;1.90;1.43;;;24.20;99.90;;;;;;4899065;29;20501;-73
2022/08/06 10:18:38;;;;;;;5.63;1.60;;;24.30;99.90;;;;;;4898419;29;20532;-74
2022/08/06 10:21:13;;;;;;;1.60;1.50;;;24.30;99.90;;;;;;4897192;29;20426;-73
2022/08/06 10:23:41;;;;;;;5.60;1.80;;;24.90;99.90;;;;;;4898838;29;20465;-74
2022/08/06 10:26:12;;;;;;;2.93;1.67;;;25.30;99.90;;;;;;4898285;29;20411;-72
2022/08/06 10:28:40;;;;;;;1.60;1.40;;;26.40;99.90;;;;;;4898287;29;20459;-74
2022/08/06 10:31:09;;;;;;;3.10;1.70;;;26.80;99.90;;;;;;4897439;29;20999;-74
2022/08/06 10:34:08;;;;;;;3.07;1.40;;;26.50;99.90;;;;;;4898141;29;20753;-73
2022/08/06 10:36:44;;;;;;;3.07;1.50;;;26.10;99.90;;;;;;4898404;29;20470;-74
2022/08/06 10:39:11;;;;;;;4.40;1.60;;;25.40;99.90;;;;;;4898061;29;20422;-72
2022/08/06 10:41:40;;;;;;;2.97;1.27;;;25.90;99.90;;;;;;4897761;29;20438;-74
2022/08/06 10:44:07;;;;;;;2.50;1.23;;;26.00;99.90;;;;;;4898235;29;20419;-74
2022/08/06 10:46:32;;;;;;;1.63;1.53;;;26.30;99.90;;;;;;4897612;29;20419;-74
2022/08/06 10:48:59;;;;;;;1.83;1.60;;;26.70;99.90;;;;;;4897658;29;20992;-73
2022/08/06 10:51:26;;;;;;;1.97;1.40;;;26.20;99.90;;;;;;4897292;29;20205;-73
2022/08/06 10:53:53;;;;;;;2.80;1.60;;;25.60;99.90;;;;;;4898555;29;20920;-73
2022/08/06 10:56:19;;;;;;;2.50;1.40;;;25.40;99.90;;;;;;4898391;29;20967;-73
2022/08/06 10:58:45;;;;;;;1.70;1.00;;;25.30;99.90;;;;;;4897850;29;20419;-73
2022/08/06 11:01:16;;;;;;;1.57;1.47;;;25.30;99.90;;;;;;4896613;29;20194;-72
2022/08/06 11:04:00;;;;;;;3.23;2.13;;;25.20;99.90;;;;;;4898245;29;20262;-74
2022/08/06 11:06:34;;;;;;;1.80;1.70;;;25.10;99.90;;;;;;4897678;29;20423;-74
2022/08/06 11:09:40;;;;;;;3.53;1.93;;;24.70;99.90;;;;;;4897684;29;20458;-73
2022/08/06 11:12:38;;;;;;;1.90;1.27;;;24.70;99.90;;;;;;4896729;29;20440;-73
2022/08/06 11:15:05;;;;;;;1.40;1.30;;;24.80;99.90;;;;;;4897081;29;20423;-73
2022/08/06 11:18:03;;;;;;;4.03;1.80;;;24.90;99.90;;;;;;4897388;29;20832;-73
2022/08/06 11:20:32;;;;;;;3.47;1.60;;;24.60;99.90;;;;;;4896358;29;20431;-73
2022/08/06 11:23:20;;;;;;;2.83;1.40;;;24.20;99.90;;;;;;4897327;29;20940;-73
2022/08/06 11:25:50;;;;;;;1.60;1.50;;;24.30;99.90;;;;;;4897730;29;20934;-74
2022/08/06 11:28:40;;;;;;;1.40;1.30;;;24.90;99.90;;;;;;4896677;29;20419;-73
2022/08/06 11:31:07;;;;;;;1.73;1.40;;;25.30;99.90;;;;;;4896203;29;20501;-73
2022/08/06 11:33:33;;;;;;;4.90;1.93;;;26.00;99.90;;;;;;4897463;29;20422;-73
2022/08/06 11:36:03;;;;;;;1.70;1.60;;;26.70;99.90;;;;;;4897433;29;20424;-73
2022/08/06 11:38:47;;;;;;;7.57;1.37;;;26.80;99.90;;;;;;4877468;29;20600;-74
2022/08/06 11:41:21;;;;;;;4.20;3.90;;;26.50;99.90;;;;;;4778319;29;20628;-72
2022/08/06 11:43:53;;;;;;;3.63;3.33;;;26.00;99.90;;;;;;4763025;29;20661;-73
2022/08/06 11:46:19;;;;;;;2.10;1.27;;;25.80;99.90;;;;;;4777867;29;21021;-72
2022/08/06 11:49:00;;;;;;;1.87;1.77;;;25.60;99.90;;;;;;4778149;29;21055;-72
2022/08/06 11:51:46;;;;;;;4.27;1.73;;;25.40;99.90;;;;;;4782101;29;20709;-72
2022/08/06 11:54:18;;;;;;;2.80;1.70;;;25.20;99.90;;;;;;4771678;29;21071;-71
2022/08/06 11:57:07;;;;;;;7.33;1.60;;;25.40;99.90;;;;;;4785645;29;20765;-72
2022/08/06 12:00:06;;;;;;;3.43;1.40;;;25.50;99.90;;;;;;4772409;29;20934;-73
2022/08/06 12:02:41;;;;;;;2.20;1.53;;;25.20;99.90;;;;;;4781598;29;20787;-73
2022/08/06 12:05:27;;;;;;;1.37;1.30;;;25.00;99.90;;;;;;4779966;29;20790;-74
2022/08/06 12:08:20;;;;;;;1.40;1.30;;;25.20;99.90;;;;;;4781265;29;20860;-72
2022/08/06 12:11:29;;;;;;;1.60;1.50;;;25.30;99.90;;;;;;4782921;29;20915;-74
2022/08/06 12:13:56;;;;;;;1.97;1.53;;;25.40;99.90;;;;;;4783232;29;20928;-74
2022/08/06 12:16:27;;;;;;;5.73;2.20;;;25.50;99.90;;;;;;4780757;29;20959;-75
2022/08/06 12:18:53;;;;;;;2.97;1.40;;;25.70;99.90;;;;;;4782369;29;20658;-75
2022/08/06 12:21:19;;;;;;;1.50;1.37;;;25.60;99.90;;;;;;4766980;29;20830;-75
2022/08/06 12:23:50;;;;;;;1.47;1.37;;;25.50;99.90;;;;;;4787298;29;20606;-75
2022/08/06 12:26:16;;;;;;;1.70;1.60;;;25.50;99.90;;;;;;4792198;29;21137;-75
2022/08/06 12:28:42;;;;;;;1.67;1.40;;;25.80;99.90;;;;;;4785208;29;20825;-75
2022/08/06 12:31:08;;;;;;;1.50;1.40;;;26.00;99.90;;;;;;4784264;29;20930;-75
2022/08/06 12:33:41;;;;;;;1.63;1.30;;;26.50;99.90;;;;;;4780714;29;20791;-75
2022/08/06 12:36:07;;;;;;;1.83;1.73;;;26.30;99.90;;;;;;4789631;29;20462;-75
2022/08/06 12:38:34;;;;;;;1.23;1.13;;;26.00;99.90;;;;;;4788800;29;21024;-75
2022/08/06 12:41:08;;;;;;;2.00;1.87;;;25.90;99.90;;;;;;4781695;29;20769;-75
2022/08/06 12:43:36;;;;;;;3.03;1.77;;;25.60;99.90;;;;;;4781300;29;20954;-74
2022/08/06 12:46:05;;;;;;;1.47;1.37;;;25.70;99.90;;;;;;4785524;29;20879;-74
2022/08/06 12:48:34;;;;;;;6.43;1.83;;;25.60;99.90;;;;;;4782182;29;20776;-75
2022/08/06 12:51:04;;;;;;;1.20;1.10;;;25.50;99.90;;;;;;4786606;29;20827;-74
2022/08/06 12:53:30;;;;;;;3.43;1.50;;;25.30;99.90;;;;;;4787198;29;20921;-76
2022/08/06 12:55:57;;;;;;;3.33;1.80;;;25.40;99.90;;;;;;4786903;29;20423;-75
2022/08/06 12:58:44;;;;;;;4.20;1.60;;;25.40;99.90;;;;;;4788571;29;20953;-75
2022/08/06 13:01:16;;;;;;;2.97;1.63;;;25.40;99.90;;;;;;4790837;29;20814;-75
2022/08/06 13:03:46;;;;;;;3.83;1.70;;;25.20;99.90;;;;;;4792157;29;20853;-76
2022/08/06 13:06:15;;;;;;;1.60;1.50;;;25.30;99.90;;;;;;4784751;29;20790;-75
2022/08/06 13:08:41;;;;;;;1.60;1.50;;;25.60;99.90;;;;;;4782856;29;21052;-75
2022/08/06 13:11:07;;;;;;;4.67;1.70;;;25.90;99.90;;;;;;4767136;29;20837;-75
2022/08/06 13:13:49;;;;;;;3.40;1.80;;;25.50;99.90;;;;;;4767665;29;20845;-75
2022/08/06 13:16:15;;;;;;;2.90;2.40;;;25.30;99.90;;;;;;4837677;29;20953;-71
2022/08/06 13:19:01;;;;;;;4.63;1.37;;;25.30;99.90;;;;;;4894457;29;20434;-72
2022/08/06 13:21:27;;;;;;;6.17;1.70;;;25.30;99.90;;;;;;4894587;29;20827;-70
2022/08/06 13:23:52;;;;;;;4.37;2.30;;;25.10;99.90;;;;;;4895666;29;20419;-72
2022/08/06 13:26:20;;;;;;;2.00;1.40;;;24.80;99.90;;;;;;4895456;29;20620;-74
2022/08/06 13:29:18;;;;;;;1.60;1.50;;;24.80;99.90;;;;;;4895068;29;20222;-73
2022/08/06 13:31:46;;;;;;;1.73;1.57;;;24.80;99.90;;;;;;4894883;29;20455;-73
2022/08/06 13:34:15;;;;;;;1.77;1.20;;;24.90;99.90;;;;;;4895417;29;20797;-72
2022/08/06 13:36:42;;;;;;;1.67;1.10;;;25.10;99.90;;;;;;4895692;29;20923;-73
2022/08/06 13:39:27;;;;;;;1.57;1.47;;;25.20;99.90;;;;;;4894831;29;20782;-71
2022/08/06 13:42:05;;;;;;;1.53;1.30;;;25.30;99.90;;;;;;4894836;29;20434;-73
2022/08/06 13:44:37;;;;;;;4.97;1.80;;;25.30;99.90;;;;;;4895420;29;20407;-72
2022/08/06 13:47:04;;;;;;;2.70;1.17;;;25.20;99.90;;;;;;4895135;29;20505;-73
2022/08/06 13:49:31;;;;;;;1.20;1.10;;;25.30;99.90;;;;;;4895175;29;20470;-72
2022/08/06 13:51:56;;;;;;;1.83;1.20;;;25.50;99.90;;;;;;4894370;29;20442;-72
2022/08/06 13:54:24;;;;;;;2.30;1.37;;;25.70;99.90;;;;;;4895388;29;20419;-73
2022/08/06 13:56:50;;;;;;;6.60;1.33;;;25.50;99.90;;;;;;4895108;29;20238;-73
2022/08/06 13:59:17;;;;;;;0.87;0.87;;;25.10;99.40;;;;;;4895159;29;20430;-73
2022/08/06 14:01:43;;;;;;;1.57;1.00;;;24.90;99.80;;;;;;4894657;29;20447;-73
2022/08/06 14:04:08;;;;;;;1.70;1.10;;;24.90;99.90;;;;;;4895072;29;20415;-73
2022/08/06 14:06:34;;;;;;;4.60;0.87;;;25.20;99.90;;;;;;4894546;29;20415;-73
2022/08/06 14:09:00;;;;;;;1.40;1.17;;;25.30;99.90;;;;;;4895717;29;20230;-71
2022/08/06 14:11:25;;;;;;;2.87;1.50;;;25.50;99.90;;;;;;4894376;29;20593;-74
2022/08/06 14:13:51;;;;;;;1.77;1.20;;;25.40;99.90;;;;;;4895117;29;20544;-73
2022/08/06 14:16:16;;;;;;;3.27;1.40;;;25.40;99.70;;;;;;4894568;29;20179;-73
2022/08/06 14:18:42;;;;;;;9.03;1.57;;;25.30;99.90;;;;;;4895029;29;20215;-73
2022/08/06 14:21:08;;;;;;;1.60;1.50;;;25.30;99.80;;;;;;4893919;29;20210;-71
2022/08/06 14:23:34;;;;;;;2.80;1.30;;;25.40;99.90;;;;;;4894624;29;20178;-73
2022/08/06 14:26:01;;;;;;;1.10;1.00;;;25.60;99.90;;;;;;4898646;29;20198;-74
2022/08/06 14:28:26;;;;;;;1.57;1.27;;;25.60;98.80;;;;;;4898202;29;20419;-72
2022/08/06 14:30:52;;;;;;;2.10;1.00;;;25.60;98.50;;;;;;4897536;29;20462;-73
2022/08/06 14:33:18;;;;;;;1.00;0.90;;;25.60;98.60;;;;;;4898437;29;20557;-73
2022/08/06 14:35:43;;;;;;;3.47;1.00;;;25.60;98.70;;;;;;4897716;29;20179;-73
2022/08/06 14:38:10;;;;;;;0.83;0.83;;;25.70;98.40;;;;;;4897811;29;20583;-73